Terminal Aerodrome Forecast
Issued by NWS

Home | Current Version | Previous Version | Text Only | Print | Product List | Glossary On
Versions: 1 2 3 4 5 6 7 8 9 10 11 12
000
FTUS43 KDLH 271100
TAFBRD
TAF
KBRD 271121Z 2712/2812 36009KT P6SM OVC015
     FM271700 31008KT P6SM BKN025
     FM272100 25011KT P6SM BKN040
     FM280800 31005KT P6SM OVC025=

USA.gov is the U.S. government's official web portal to all federal, state and local government web resources and services.